createdAt,value
2018-12-13T00:00:03.844Z,1.46
2018-12-13T00:05:07.137Z,1.43
2018-12-13T00:10:10.380Z,1.39
2018-12-13T00:15:13.660Z,1.39
2018-12-13T00:20:17.079Z,1.37
2018-12-13T00:25:20.641Z,1.46
2018-12-13T00:30:24.098Z,1.48
2018-12-13T00:35:27.303Z,1.56
2018-12-13T00:40:30.583Z,1.67
2018-12-13T00:45:33.839Z,1.74
2018-12-13T00:50:37.012Z,1.82
2018-12-13T00:55:40.354Z,1.88
2018-12-13T01:00:43.465Z,1.94
2018-12-13T01:05:46.674Z,2.01
2018-12-13T01:10:49.809Z,1.77
2018-12-13T01:15:53.346Z,1.64
2018-12-13T01:20:56.505Z,1.57
2018-12-13T01:25:59.824Z,1.61
2018-12-13T01:31:03.132Z,1.56
2018-12-13T01:36:06.524Z,1.61
2018-12-13T01:41:09.710Z,1.58
2018-12-13T01:46:15.089Z,1.56
2018-12-13T01:51:18.458Z,1.55
2018-12-13T01:56:21.743Z,1.53
2018-12-13T02:01:24.959Z,1.64
2018-12-13T02:06:28.334Z,1.72
2018-12-13T02:11:31.570Z,1.75
2018-12-13T02:16:34.873Z,1.68
2018-12-13T02:21:38.336Z,1.63
2018-12-13T02:26:41.790Z,1.61
2018-12-13T02:31:45.124Z,1.61
2018-12-13T02:36:48.876Z,1.62
2018-12-13T02:41:52.088Z,1.61
2018-12-13T02:46:55.333Z,1.60
2018-12-13T02:52:01.665Z,1.64
2018-12-13T02:57:04.863Z,1.69
2018-12-13T03:02:08.271Z,1.75
2018-12-13T03:07:13.992Z,1.90
2018-12-13T03:12:16.947Z,1.93
2018-12-13T03:17:20.249Z,2.01
2018-12-13T03:22:23.467Z,1.96
2018-12-13T03:27:26.804Z,2.02
2018-12-13T03:32:30.186Z,1.99
2018-12-13T03:37:33.452Z,1.98
2018-12-13T03:42:37.010Z,1.98
2018-12-13T03:47:40.324Z,1.95
2018-12-13T03:52:43.599Z,1.95
2018-12-13T03:57:46.998Z,1.96
2018-12-13T04:02:50.436Z,1.97
2018-12-13T04:07:53.854Z,2.00
2018-12-13T04:12:57.296Z,2.05
2018-12-13T04:18:00.566Z,2.06
2018-12-13T04:23:03.784Z,2.07
2018-12-13T04:28:07.165Z,2.10
2018-12-13T04:33:10.455Z,2.09
2018-12-13T04:38:13.753Z,2.08
2018-12-13T04:43:17.002Z,2.12
2018-12-13T04:48:20.266Z,2.10
2018-12-13T04:53:23.577Z,2.14
2018-12-13T04:58:26.836Z,2.16
2018-12-13T05:03:30.098Z,2.15
2018-12-13T05:08:33.190Z,2.12
2018-12-13T05:13:36.463Z,2.09
2018-12-13T05:18:39.724Z,2.10
2018-12-13T05:23:43.018Z,2.14
2018-12-13T05:28:46.151Z,2.10
2018-12-13T05:33:49.454Z,2.07
2018-12-13T05:38:52.768Z,2.06
2018-12-13T05:43:56.182Z,2.04
2018-12-13T05:48:59.488Z,2.03
2018-12-13T05:54:02.767Z,2.01
2018-12-13T05:59:06.118Z,2.01
2018-12-13T06:04:10.204Z,2.02
2018-12-13T06:09:13.455Z,2.00
2018-12-13T06:14:16.665Z,2.02
2018-12-13T06:19:19.890Z,2.02
2018-12-13T06:24:23.218Z,2.03
2018-12-13T06:29:26.398Z,2.04
2018-12-13T06:34:29.756Z,2.04
2018-12-13T06:39:33.266Z,2.05
2018-12-13T06:44:36.694Z,2.09
2018-12-13T06:49:39.951Z,2.09
2018-12-13T06:54:43.192Z,2.09
2018-12-13T06:59:46.903Z,2.09
2018-12-13T07:04:50.094Z,2.09
2018-12-13T07:09:53.378Z,2.10
2018-12-13T07:14:56.740Z,2.08
2018-12-13T07:20:00.014Z,2.09
2018-12-13T07:25:03.662Z,2.06
2018-12-13T07:30:08.323Z,2.07
2018-12-13T07:35:11.604Z,2.07
2018-12-13T07:40:14.941Z,2.10
2018-12-13T07:45:18.117Z,2.14
2018-12-13T07:50:21.334Z,2.18
2018-12-13T07:55:24.605Z,2.19
2018-12-13T08:00:28.266Z,2.25
2018-12-13T08:05:31.679Z,2.27
2018-12-13T08:10:35.039Z,2.30
2018-12-13T08:15:40.404Z,2.32
2018-12-13T08:20:43.780Z,2.30
2018-12-13T08:25:46.995Z,2.31
2018-12-13T08:30:50.200Z,2.23
2018-12-13T08:35:53.389Z,2.24
2018-12-13T08:40:56.543Z,2.26
2018-12-13T08:46:00.637Z,2.23
2018-12-13T08:51:03.863Z,2.33
2018-12-13T08:56:07.157Z,2.46
2018-12-13T09:01:10.412Z,2.51
2018-12-13T09:06:13.629Z,2.56
2018-12-13T09:11:16.792Z,2.71
2018-12-13T09:16:20.738Z,2.78
2018-12-13T09:21:23.913Z,2.77
2018-12-13T09:26:27.125Z,2.88
2018-12-13T09:31:30.331Z,2.95
2018-12-13T09:36:33.945Z,2.93
2018-12-13T09:41:37.154Z,2.88
2018-12-13T09:46:40.364Z,2.85
2018-12-13T09:51:43.577Z,2.93
2018-12-13T09:56:46.767Z,2.89
2018-12-13T10:01:50.004Z,2.83
2018-12-13T10:06:53.199Z,2.99
2018-12-13T10:11:56.362Z,3.22
2018-12-13T10:16:59.680Z,3.14
2018-12-13T10:22:03.599Z,3.27
2018-12-13T10:27:06.947Z,3.21
2018-12-13T10:32:10.407Z,3.22
2018-12-13T10:37:13.633Z,3.04
2018-12-13T10:42:16.777Z,3.08
2018-12-13T10:47:20.294Z,3.40
2018-12-13T10:52:23.515Z,3.33
2018-12-13T10:57:26.617Z,3.29
2018-12-13T11:02:39.683Z,3.16
2018-12-13T11:07:42.983Z,3.44
2018-12-13T11:12:46.098Z,3.47
2018-12-13T11:17:49.443Z,3.45
2018-12-13T11:22:52.716Z,3.49
2018-12-13T11:28:32.250Z,3.35
2018-12-13T11:33:36.070Z,3.47
2018-12-13T11:38:40.011Z,3.52
2018-12-13T11:43:43.321Z,3.32
2018-12-13T11:48:46.485Z,3.36
2018-12-13T11:53:50.762Z,3.25
2018-12-13T11:58:53.970Z,3.33
2018-12-13T12:03:57.196Z,3.22
2018-12-13T12:09:00.539Z,3.12
2018-12-13T12:14:03.878Z,3.21
2018-12-13T12:19:07.131Z,3.03
2018-12-13T12:24:10.329Z,2.94
2018-12-13T12:29:13.659Z,2.94
2018-12-13T12:34:18.170Z,2.94
2018-12-13T12:39:21.890Z,2.95
2018-12-13T12:44:25.226Z,3.02
2018-12-13T12:49:29.609Z,3.07
2018-12-13T12:54:33.472Z,2.96
2018-12-13T12:59:36.921Z,2.78
2018-12-13T13:04:40.179Z,2.62
2018-12-13T13:09:43.616Z,2.51
2018-12-13T13:14:47.622Z,2.50
2018-12-13T13:19:51.036Z,2.52
2018-12-13T13:24:54.375Z,2.42
2018-12-13T13:29:57.576Z,2.34
2018-12-13T13:35:01.378Z,2.36
2018-12-13T13:40:05.654Z,2.30
2018-12-13T13:45:08.964Z,2.32
2018-12-13T13:50:12.566Z,2.33
2018-12-13T13:55:15.846Z,2.34
2018-12-13T14:00:19.241Z,2.32
2018-12-13T14:05:22.798Z,2.29
2018-12-13T14:10:26.102Z,2.25
2018-12-13T14:15:30.225Z,2.22
2018-12-13T14:20:33.739Z,2.21
2018-12-13T14:25:37.047Z,2.17
2018-12-13T14:30:40.495Z,2.15
2018-12-13T14:35:44.196Z,2.16
2018-12-13T14:40:47.947Z,2.07
2018-12-13T14:45:52.905Z,2.05
2018-12-13T14:50:58.368Z,1.99
2018-12-13T14:56:04.582Z,1.97
2018-12-13T15:01:13.409Z,2.01
2018-12-13T15:06:19.703Z,1.98
2018-12-13T15:11:25.331Z,1.93
2018-12-13T15:16:30.389Z,1.94
2018-12-13T15:21:35.917Z,1.93
2018-12-13T15:26:42.594Z,1.95
2018-12-13T15:31:47.864Z,1.90
2018-12-13T15:36:58.251Z,1.90
2018-12-13T15:42:01.939Z,1.87
2018-12-13T15:47:05.178Z,1.84
2018-12-13T15:52:08.889Z,1.90
2018-12-13T15:57:12.310Z,1.88
2018-12-13T16:02:16.045Z,1.89
2018-12-13T16:07:19.963Z,1.85
2018-12-13T16:12:23.775Z,1.85
2018-12-13T16:17:27.409Z,1.85
2018-12-13T16:22:31.333Z,1.92
2018-12-13T16:27:35.069Z,1.91
2018-12-13T16:32:38.648Z,1.89
2018-12-13T16:37:42.858Z,1.86
2018-12-13T16:42:46.364Z,1.88
2018-12-13T16:47:49.844Z,1.81
2018-12-13T16:52:54.082Z,1.86
2018-12-13T16:57:57.730Z,1.80
2018-12-13T17:03:08.713Z,1.73
2018-12-13T17:08:12.609Z,1.66
2018-12-13T17:13:16.420Z,1.72
2018-12-13T17:18:20.152Z,1.76
2018-12-13T17:23:23.445Z,1.76
2018-12-13T17:28:27.289Z,1.72
2018-12-13T17:33:30.910Z,1.69
2018-12-13T17:38:34.517Z,1.64
2018-12-13T17:43:38.109Z,1.64
2018-12-13T17:48:41.411Z,1.62
2018-12-13T17:53:45.082Z,1.56
2018-12-13T17:58:51.217Z,1.49
2018-12-13T18:03:54.624Z,1.39
2018-12-13T18:08:58.395Z,1.35
2018-12-13T18:14:03.545Z,1.28
2018-12-13T18:19:09.561Z,1.23
2018-12-13T18:24:12.836Z,1.20
2018-12-13T18:29:16.532Z,1.14
2018-12-13T18:34:20.591Z,1.16
2018-12-13T18:39:24.184Z,1.14
2018-12-13T18:44:27.691Z,1.09
2018-12-13T18:49:31.319Z,1.06
2018-12-13T18:54:34.827Z,1.00
2018-12-13T18:59:38.088Z,1.05
2018-12-13T19:04:41.440Z,1.12
2018-12-13T19:09:44.851Z,1.16
2018-12-13T19:14:48.294Z,1.27
2018-12-13T19:19:51.792Z,1.33
2018-12-13T19:24:55.234Z,1.35
2018-12-13T19:29:58.595Z,1.32
2018-12-13T19:35:01.873Z,1.33
2018-12-13T19:40:06.677Z,1.30
2018-12-13T19:45:10.120Z,1.29
2018-12-13T19:50:13.409Z,1.30
2018-12-13T19:55:16.592Z,1.33
2018-12-13T20:00:21.686Z,1.25
2018-12-13T20:05:25.712Z,1.23
2018-12-13T20:10:39.562Z,1.19
2018-12-13T20:15:43.781Z,1.16
2018-12-13T20:20:48.446Z,1.18
2018-12-13T20:25:52.206Z,1.16
2018-12-13T20:30:56.756Z,1.14
2018-12-13T20:36:00.537Z,1.11
2018-12-13T20:41:05.292Z,1.09
2018-12-13T20:46:08.767Z,1.05
2018-12-13T20:51:12.743Z,1.01
2018-12-13T20:56:16.792Z,0.92
2018-12-13T21:01:20.509Z,0.94
2018-12-13T21:06:24.063Z,0.99
2018-12-13T21:11:27.612Z,0.91
2018-12-13T21:16:31.325Z,0.89
2018-12-13T21:21:35.066Z,0.86
2018-12-13T21:26:38.662Z,0.85
2018-12-13T21:31:42.442Z,0.85
2018-12-13T21:36:45.936Z,0.82
2018-12-13T21:41:49.320Z,0.79
2018-12-13T21:46:53.028Z,0.76
2018-12-13T21:51:56.344Z,0.70
2018-12-13T21:56:59.726Z,0.70
2018-12-13T22:02:15.506Z,0.67
2018-12-13T22:07:22.050Z,0.55
2018-12-13T22:12:25.387Z,0.49
2018-12-13T22:17:28.830Z,0.48
2018-12-13T22:22:32.133Z,0.46
2018-12-13T22:27:36.668Z,0.44
2018-12-13T22:32:39.918Z,0.36
2018-12-13T22:37:43.292Z,0.41
2018-12-13T22:42:46.604Z,0.41
2018-12-13T22:47:49.986Z,0.40
2018-12-13T22:52:53.155Z,0.43
2018-12-13T22:57:56.434Z,0.43
2018-12-13T23:02:59.723Z,0.39
2018-12-13T23:08:03.109Z,0.34
2018-12-13T23:13:06.278Z,0.31
2018-12-13T23:18:09.597Z,0.33
2018-12-13T23:23:13.261Z,0.28
2018-12-13T23:28:16.446Z,0.23
2018-12-13T23:33:19.776Z,0.23
2018-12-13T23:38:23.073Z,0.17
2018-12-13T23:43:26.395Z,0.17
2018-12-13T23:48:30.515Z,0.18
2018-12-13T23:53:34.016Z,0.20
2018-12-13T23:58:37.237Z,0.21
